OMO weather

Mostar International Airport
Mostar, Federacija Bosna i Hercegovina, Bosnia and Herzegovina

Public forecast

Using degrees Celsius for public forecast. Weather courtesy of forecast.io.

METAR (pilot weather report)

Retrieved 2019/05/21 04:00 UTC (7 minutes ago):

LQMO 210400Z VRB02KT 9999 FEW010 SCT035 BKN070 13/11 Q1010

TAF (pilot weather forecast)

Forecast is more than 12 hours old.

Retrieved 2019/05/20 00:08 UTC (1 day ago):

TAF LQMO 202300Z 2100/2124 15005KT 9999 SCT045 BKN060 TX20/2113Z TN12/2104Z PROB30 TEMPO 2100/2105 4000 -RA BR PROB40 TEMPO 2109/2117 23010KT SHRA FEW040TCU BKN055